createdAt,value
2018-04-23T00:01:02.821Z,101438.02
2018-04-23T00:03:31.415Z,101430.44
2018-04-23T00:06:00.091Z,101431.74
2018-04-23T00:08:28.437Z,101430.98
2018-04-23T00:10:56.929Z,101428.33
2018-04-23T00:13:25.307Z,101424.54
2018-04-23T00:15:54.004Z,101420.80
2018-04-23T00:18:22.648Z,101415.77
2018-04-23T00:20:51.512Z,101410.72
2018-04-23T00:23:19.992Z,101411.17
2018-04-23T00:25:49.024Z,101411.97
2018-04-23T00:28:17.763Z,101415.27
2018-04-23T00:30:46.132Z,101406.00
2018-04-23T00:33:14.506Z,101407.30
2018-04-23T00:35:42.942Z,101406.06
2018-04-23T00:38:12.122Z,101403.55
2018-04-23T00:40:41.140Z,101396.45
2018-04-23T00:43:09.488Z,101396.57
2018-04-23T00:45:38.356Z,101395.73
2018-04-23T00:48:07.084Z,101395.04
2018-04-23T00:50:35.454Z,101389.59
2018-04-23T00:53:15.949Z,101390.44
2018-04-23T00:55:44.812Z,101388.41
2018-04-23T00:58:13.162Z,101383.47
2018-04-23T01:00:41.504Z,101386.43
2018-04-23T01:03:09.858Z,101394.00
2018-04-23T01:05:38.740Z,101393.17
2018-04-23T01:08:07.905Z,101388.97
2018-04-23T01:10:37.045Z,101383.08
2018-04-23T01:13:05.814Z,101378.92
2018-04-23T01:15:34.163Z,101383.19
2018-04-23T01:18:03.618Z,101378.99
2018-04-23T01:20:31.999Z,101382.37
2018-04-23T01:23:00.347Z,101384.04
2018-04-23T01:25:28.734Z,101384.53
2018-04-23T01:27:57.307Z,101381.66
2018-04-23T01:30:26.044Z,101381.73
2018-04-23T01:32:55.280Z,101380.49
2018-04-23T01:35:24.436Z,101382.25
2018-04-23T01:37:53.041Z,101377.61
2018-04-23T01:40:21.483Z,101366.52
2018-04-23T01:42:49.827Z,101367.77
2018-04-23T01:45:18.725Z,101368.19
2018-04-23T01:47:47.132Z,101361.39
2018-04-23T01:50:15.633Z,101366.03
2018-04-23T01:52:44.197Z,101356.76
2018-04-23T01:55:12.693Z,101359.34
2018-04-23T01:57:41.083Z,101349.17
2018-04-23T02:00:09.774Z,101340.39
2018-04-23T02:02:38.131Z,101342.51
2018-04-23T02:05:06.556Z,101341.76
2018-04-23T02:07:35.013Z,101337.25
2018-04-23T02:10:03.375Z,101329.81
2018-04-23T02:12:31.870Z,101331.87
2018-04-23T02:15:00.525Z,101328.93
2018-04-23T02:17:29.879Z,101317.98
2018-04-23T02:19:58.225Z,101307.94
2018-04-23T02:22:26.567Z,101304.23
2018-04-23T02:24:55.587Z,101296.70
2018-04-23T02:27:25.194Z,101295.59
2018-04-23T02:29:53.532Z,101296.08
2018-04-23T02:32:22.161Z,101294.42
2018-04-23T02:34:51.348Z,101291.05
2018-04-23T02:37:20.538Z,101294.97
2018-04-23T02:39:49.338Z,101290.83
2018-04-23T02:42:17.977Z,101295.45
2018-04-23T02:44:46.408Z,101302.26
2018-04-23T02:47:14.830Z,101297.64
2018-04-23T02:49:43.185Z,101298.06
2018-04-23T02:52:11.737Z,101290.84
2018-04-23T02:54:41.163Z,101292.87
2018-04-23T02:57:10.773Z,101295.83
2018-04-23T02:59:39.262Z,101284.95
2018-04-23T03:02:08.837Z,101291.27
2018-04-23T03:04:37.536Z,101282.83
2018-04-23T03:07:06.676Z,101276.41
2018-04-23T03:09:35.170Z,101277.59
2018-04-23T03:12:03.543Z,101275.41
2018-04-23T03:14:31.897Z,101278.30
2018-04-23T03:17:00.559Z,101281.64
2018-04-23T03:19:29.199Z,101275.27
2018-04-23T03:21:57.906Z,101266.75
2018-04-23T03:24:26.356Z,101263.69
2018-04-23T03:26:54.710Z,101259.88
2018-04-23T03:29:23.634Z,101256.86
2018-04-23T03:31:52.932Z,101250.53
2018-04-23T03:34:21.422Z,101253.35
2018-04-23T03:36:49.987Z,101246.52
2018-04-23T03:39:19.189Z,101243.84
2018-04-23T03:41:48.032Z,101240.31
2018-04-23T03:44:17.086Z,101228.80
2018-04-23T03:46:46.091Z,101228.77
2018-04-23T03:49:14.597Z,101217.75
2018-04-23T03:51:42.964Z,101211.32
2018-04-23T03:54:11.369Z,101195.24
2018-04-23T03:56:40.224Z,101205.20
2018-04-23T03:59:09.016Z,101208.89
2018-04-23T04:01:37.716Z,101212.52
2018-04-23T04:04:06.613Z,101208.56
2018-04-23T04:06:35.233Z,101197.85
2018-04-23T04:09:04.322Z,101201.87
2018-04-23T04:11:32.796Z,101196.61
2018-04-23T04:14:13.136Z,101197.69
2018-04-23T04:16:54.304Z,101194.92
2018-04-23T04:19:22.689Z,101190.41
2018-04-23T04:21:51.277Z,101197.34
2018-04-23T04:24:19.773Z,101202.38
2018-04-23T04:26:49.173Z,101210.30
2018-04-23T04:29:17.559Z,101201.88
2018-04-23T04:31:46.473Z,101200.69
2018-04-23T04:34:15.476Z,101198.63
2018-04-23T04:36:43.907Z,101197.11
2018-04-23T04:39:12.262Z,101206.49
2018-04-23T04:41:40.686Z,101204.39
2018-04-23T04:44:09.035Z,101201.34
2018-04-23T04:46:37.396Z,101202.90
2018-04-23T04:49:06.231Z,101196.47
2018-04-23T04:51:34.831Z,101195.03
2018-04-23T04:54:03.342Z,101195.68
2018-04-23T04:56:31.980Z,101197.16
2018-04-23T04:59:00.346Z,101190.58
2018-04-23T05:01:29.133Z,101176.13
2018-04-23T05:03:57.528Z,101172.72
2018-04-23T05:06:26.028Z,101171.77
2018-04-23T05:08:54.568Z,101172.52
2018-04-23T05:11:22.960Z,101166.08
2018-04-23T05:13:51.454Z,101168.50
2018-04-23T05:16:19.793Z,101160.27
2018-04-23T05:18:48.228Z,101155.44
2018-04-23T05:21:19.147Z,101143.48
2018-04-23T05:23:47.548Z,101138.47
2018-04-23T05:26:16.027Z,101137.47
2018-04-23T05:28:44.459Z,101132.95
2018-04-23T05:31:13.269Z,101131.73
2018-04-23T05:33:41.897Z,101135.59
2018-04-23T05:36:10.364Z,101130.56
2018-04-23T05:38:38.716Z,101122.59
2018-04-23T05:41:07.057Z,101122.09
2018-04-23T05:43:36.972Z,101113.19
2018-04-23T05:46:05.760Z,101117.67
2018-04-23T05:48:34.120Z,101116.99
2018-04-23T05:51:03.014Z,101117.64
2018-04-23T05:53:31.405Z,101102.06
2018-04-23T05:56:00.065Z,101094.83
2018-04-23T05:58:28.983Z,101083.27
2018-04-23T06:00:57.354Z,101080.64
2018-04-23T06:03:25.782Z,101076.72
2018-04-23T06:05:54.148Z,101072.39
2018-04-23T06:08:22.569Z,101063.30
2018-04-23T06:10:51.267Z,101064.44
2018-04-23T06:13:19.673Z,101055.36
2018-04-23T06:15:48.030Z,101052.96
2018-04-23T06:18:16.418Z,101054.42
2018-04-23T06:20:44.759Z,101051.68
2018-04-23T06:23:13.103Z,101054.89
2018-04-23T06:25:41.623Z,101041.21
2018-04-23T06:28:10.088Z,101035.92
2018-04-23T06:30:38.468Z,101036.29
2018-04-23T06:33:07.032Z,101037.78
2018-04-23T06:35:35.383Z,101033.64
2018-04-23T06:38:03.746Z,101031.27
2018-04-23T06:40:32.096Z,101034.79
2018-04-23T06:43:00.450Z,101024.08
2018-04-23T06:45:29.720Z,101024.41
2018-04-23T06:47:58.574Z,101022.45
2018-04-23T06:50:27.744Z,101007.90
2018-04-23T06:52:56.555Z,101012.56
2018-04-23T06:55:25.307Z,101007.24
2018-04-23T06:57:53.652Z,101010.52
2018-04-23T07:00:22.104Z,101007.88
2018-04-23T07:02:50.473Z,101006.48
2018-04-23T07:05:18.827Z,100998.63
2018-04-23T07:07:47.233Z,100989.78
2018-04-23T07:10:15.975Z,100987.80
2018-04-23T07:12:44.343Z,100992.86
2018-04-23T07:15:12.964Z,100994.78
2018-04-23T07:17:42.075Z,100989.31
2018-04-23T07:20:10.975Z,100987.73
2018-04-23T07:22:39.332Z,100981.55
2018-04-23T07:25:07.687Z,100979.37
2018-04-23T07:27:36.035Z,100978.97
2018-04-23T07:30:04.390Z,100972.27
2018-04-23T07:32:32.735Z,100967.50
2018-04-23T07:35:01.752Z,100972.44
2018-04-23T07:37:30.408Z,100979.86
2018-04-23T07:39:58.824Z,100975.03
2018-04-23T07:42:27.545Z,100962.61
2018-04-23T07:44:56.516Z,100969.23
2018-04-23T07:47:24.937Z,100972.76
2018-04-23T07:49:53.820Z,100970.22
2018-04-23T07:52:22.352Z,100967.51
2018-04-23T07:54:50.878Z,100963.59
2018-04-23T07:57:19.241Z,100957.81
2018-04-23T07:59:47.711Z,100953.43
2018-04-23T08:02:16.065Z,100953.56
2018-04-23T08:04:44.440Z,100945.55
2018-04-23T08:07:12.966Z,100942.57
2018-04-23T08:09:42.236Z,100947.47
2018-04-23T08:12:10.614Z,100943.00
2018-04-23T08:14:39.023Z,100933.48
2018-04-23T08:17:07.777Z,100935.67
2018-04-23T08:19:36.126Z,100930.48
2018-04-23T08:22:05.114Z,100929.37
2018-04-23T08:24:34.419Z,100932.61
2018-04-23T08:27:02.864Z,100943.61
2018-04-23T08:29:31.300Z,100929.75
2018-04-23T08:31:59.673Z,100926.53
2018-04-23T08:34:28.043Z,100927.31
2018-04-23T08:36:56.859Z,100913.88
2018-04-23T08:39:25.286Z,100906.18
2018-04-23T08:41:53.646Z,100906.55
2018-04-23T08:44:22.798Z,100906.45
2018-04-23T08:46:51.318Z,100902.42
2018-04-23T08:49:19.906Z,100894.50
2018-04-23T08:51:48.307Z,100906.40
2018-04-23T08:54:16.926Z,100917.05
2018-04-23T08:56:45.281Z,100922.11
2018-04-23T08:59:13.960Z,100909.28
2018-04-23T09:01:43.419Z,100910.07
2018-04-23T09:04:12.030Z,100913.19
2018-04-23T09:06:40.431Z,100910.94
2018-04-23T09:09:08.775Z,100903.91
2018-04-23T09:11:37.119Z,100912.58
2018-04-23T09:14:07.303Z,100925.36
2018-04-23T09:16:36.014Z,100923.45
2018-04-23T09:19:04.868Z,100919.13
2018-04-23T09:21:33.400Z,100910.71
2018-04-23T09:24:01.858Z,100908.80
2018-04-23T09:26:30.524Z,100904.40
2018-04-23T09:28:58.880Z,100912.24
2018-04-23T09:31:28.039Z,100919.35
2018-04-23T09:33:56.532Z,100909.33
2018-04-23T09:36:25.839Z,100917.41
2018-04-23T09:38:54.633Z,100918.09
2018-04-23T09:41:24.074Z,100918.44
2018-04-23T09:43:54.175Z,100921.67
2018-04-23T09:46:23.180Z,100917.75
2018-04-23T09:48:52.212Z,100915.27
2018-04-23T09:51:20.641Z,100912.58
2018-04-23T09:53:50.474Z,100900.38
2018-04-23T09:56:18.819Z,100900.21
2018-04-23T09:58:47.183Z,100892.69
2018-04-23T10:01:21.027Z,100895.77
2018-04-23T10:03:51.585Z,100897.80
2018-04-23T10:06:20.745Z,100897.97
2018-04-23T10:08:49.622Z,100900.70
2018-04-23T10:11:18.661Z,100897.36
2018-04-23T10:13:47.365Z,100893.75
2018-04-23T10:16:15.975Z,100893.63
2018-04-23T10:18:45.378Z,100885.40
2018-04-23T10:21:14.054Z,100878.07
2018-04-23T10:23:42.998Z,100881.75
2018-04-23T10:26:11.507Z,100870.03
2018-04-23T10:28:40.851Z,100857.45
2018-04-23T10:31:09.829Z,100855.72
2018-04-23T10:33:38.232Z,100839.08
2018-04-23T10:36:06.592Z,100839.47
2018-04-23T10:38:35.000Z,100835.14
2018-04-23T10:41:04.567Z,100831.14
2018-04-23T10:43:32.914Z,100824.48
2018-04-23T10:46:01.857Z,100819.98
2018-04-23T10:48:30.637Z,100814.04
2018-04-23T10:50:59.373Z,100813.01
2018-04-23T10:53:27.771Z,100810.31
2018-04-23T10:55:56.258Z,100814.70
2018-04-23T10:58:24.856Z,100814.77
2018-04-23T11:00:53.443Z,100808.11
2018-04-23T11:03:21.937Z,100807.31
2018-04-23T11:05:50.354Z,100804.38
2018-04-23T11:08:19.005Z,100798.59
2018-04-23T11:10:48.717Z,100802.89
2018-04-23T11:13:17.503Z,100804.80
2018-04-23T11:15:46.408Z,100795.91
2018-04-23T11:18:15.394Z,100788.39
2018-04-23T11:20:44.243Z,100783.36
2018-04-23T11:23:12.799Z,100775.91
2018-04-23T11:25:41.144Z,100768.94
2018-04-23T11:28:09.766Z,100773.99
2018-04-23T11:30:39.088Z,100773.97
2018-04-23T11:33:07.553Z,100773.11
2018-04-23T11:35:36.166Z,100771.27
2018-04-23T11:38:04.527Z,100760.55
2018-04-23T11:40:32.885Z,100766.05
2018-04-23T11:43:01.658Z,100764.46
2018-04-23T11:45:30.007Z,100765.22
2018-04-23T11:47:58.380Z,100764.55
2018-04-23T11:50:26.735Z,100771.50
2018-04-23T11:52:57.003Z,100773.77
2018-04-23T11:55:25.556Z,100776.68
2018-04-23T11:57:54.601Z,100773.38
2018-04-23T12:00:22.977Z,100769.13
2018-04-23T12:02:51.798Z,100772.85
2018-04-23T12:05:20.382Z,100766.45
2018-04-23T12:07:49.239Z,100774.52
2018-04-23T12:10:20.175Z,100759.34
2018-04-23T12:12:50.418Z,100774.69
2018-04-23T12:15:19.446Z,100760.61
2018-04-23T12:17:49.031Z,100757.95
2018-04-23T12:20:23.287Z,100754.63
2018-04-23T12:22:55.133Z,100751.02
2018-04-23T12:25:30.231Z,100746.80
2018-04-23T12:27:58.694Z,100747.38
2018-04-23T12:30:29.104Z,100747.09
2018-04-23T12:32:59.017Z,100741.95
2018-04-23T12:35:27.926Z,100745.05
2018-04-23T12:37:57.267Z,100739.47
2018-04-23T12:40:26.416Z,100728.98
2018-04-23T12:42:54.990Z,100724.38
2018-04-23T12:45:23.359Z,100720.69
2018-04-23T12:47:52.216Z,100720.31
2018-04-23T12:50:21.219Z,100720.55
2018-04-23T12:52:49.649Z,100720.77
2018-04-23T12:55:18.323Z,100717.48
2018-04-23T12:57:46.683Z,100717.23
2018-04-23T13:00:15.393Z,100716.89
2018-04-23T13:02:43.751Z,100704.52
2018-04-23T13:05:12.223Z,100700.57
2018-04-23T13:07:40.601Z,100696.12
2018-04-23T13:10:09.209Z,100695.18
2018-04-23T13:12:37.561Z,100694.48
2018-04-23T13:15:05.917Z,100689.77
2018-04-23T13:17:34.884Z,100678.95
2018-04-23T13:20:03.744Z,100672.42
2018-04-23T13:22:35.315Z,100669.44
2018-04-23T13:25:04.265Z,100666.55
2018-04-23T13:27:32.678Z,100666.89
2018-04-23T13:30:04.736Z,100668.57
2018-04-23T13:32:33.541Z,100663.19
2018-04-23T13:35:02.667Z,100665.18
2018-04-23T13:37:31.092Z,100659.55
2018-04-23T13:39:59.984Z,100658.50
2018-04-23T13:42:28.485Z,100651.72
2018-04-23T13:44:57.617Z,100666.60
2018-04-23T13:47:25.993Z,100661.48
2018-04-23T13:49:54.402Z,100666.84
2018-04-23T13:52:22.979Z,100652.66
2018-04-23T13:54:52.445Z,100662.98
2018-04-23T13:57:21.651Z,100663.28
2018-04-23T13:59:51.232Z,100660.86
2018-04-23T14:02:20.938Z,100660.13
2018-04-23T14:04:49.708Z,100665.89
2018-04-23T14:07:20.888Z,100669.77
2018-04-23T14:09:52.517Z,100665.29
2018-04-23T14:12:23.852Z,100661.41
2018-04-23T14:14:53.935Z,100661.33
2018-04-23T14:17:22.861Z,100657.37
2018-04-23T14:19:51.443Z,100661.22
2018-04-23T14:22:19.812Z,100668.74
2018-04-23T14:24:48.684Z,100661.96
2018-04-23T14:27:20.758Z,100652.56
2018-04-23T14:32:23.964Z,100658.30
2018-04-23T14:34:52.496Z,100682.61
2018-04-23T14:37:20.953Z,100704.52
2018-04-23T14:39:49.380Z,100712.48
2018-04-23T14:42:17.768Z,100719.49
2018-04-23T14:44:46.376Z,100716.17
2018-04-23T14:47:15.138Z,100736.02
2018-04-23T14:49:43.506Z,100737.81
2018-04-23T14:52:11.865Z,100738.20
2018-04-23T14:54:40.997Z,100737.39
2018-04-23T14:57:09.392Z,100732.82
2018-04-23T14:59:37.766Z,100730.80
2018-04-23T15:02:06.189Z,100734.48
2018-04-23T15:04:34.556Z,100740.97
2018-04-23T15:07:02.933Z,100736.77
2018-04-23T15:09:31.760Z,100737.72
2018-04-23T15:12:00.477Z,100742.11
2018-04-23T15:14:28.962Z,100746.67
2018-04-23T15:16:57.688Z,100738.50
2018-04-23T15:19:26.234Z,100738.90
2018-04-23T15:21:55.470Z,100748.21
2018-04-23T15:24:23.864Z,100746.29
2018-04-23T15:26:52.247Z,100756.64
2018-04-23T15:29:21.157Z,100764.36
2018-04-23T15:31:49.744Z,100760.26
2018-04-23T15:34:18.338Z,100763.19
2018-04-23T15:36:46.743Z,100760.58
2018-04-23T15:39:15.507Z,100749.72
2018-04-23T15:41:43.962Z,100758.52
2018-04-23T15:44:12.342Z,100750.44
2018-04-23T15:46:40.842Z,100748.52
2018-04-23T15:49:09.688Z,100756.32
2018-04-23T15:51:38.881Z,100752.97
2018-04-23T15:54:11.452Z,100768.08
2018-04-23T15:56:39.848Z,100767.94
2018-04-23T15:59:08.225Z,100775.93
2018-04-23T16:01:37.086Z,100770.78
2018-04-23T16:04:05.829Z,100761.41
2018-04-23T16:06:34.522Z,100765.84
2018-04-23T16:09:02.904Z,100767.32
2018-04-23T16:11:31.316Z,100760.13
2018-04-23T16:14:00.022Z,100766.53
2018-04-23T16:16:28.906Z,100772.36
2018-04-23T16:18:58.599Z,100782.45
2018-04-23T16:21:26.976Z,100794.38
2018-04-23T16:23:55.369Z,100779.84
2018-04-23T16:26:23.919Z,100775.94
2018-04-23T16:28:52.663Z,100775.84
2018-04-23T16:31:21.596Z,100787.17
2018-04-23T16:33:51.049Z,100780.39
2018-04-23T16:36:19.545Z,100778.23
2018-04-23T16:38:48.357Z,100783.59
2018-04-23T16:41:18.120Z,100776.72
2018-04-23T16:43:46.498Z,100781.74
2018-04-23T16:46:19.547Z,100788.94
2018-04-23T16:48:47.956Z,100797.22
2018-04-23T16:51:16.534Z,100810.47
2018-04-23T16:53:44.969Z,100806.97
2018-04-23T16:56:13.700Z,100806.68
2018-04-23T16:58:42.096Z,100807.38
2018-04-23T17:01:10.511Z,100806.44
2018-04-23T17:03:39.119Z,100808.34
2018-04-23T17:06:07.524Z,100819.39
2018-04-23T17:08:35.909Z,100812.06
2018-04-23T17:11:04.431Z,100811.67
2018-04-23T17:13:33.196Z,100816.44
2018-04-23T17:16:03.015Z,100823.06
2018-04-23T17:18:31.860Z,100818.78
2018-04-23T17:21:00.693Z,100816.77
2018-04-23T17:23:29.157Z,100816.97
2018-04-23T17:25:58.147Z,100824.41
2018-04-23T17:28:26.867Z,100822.30
2018-04-23T17:30:55.639Z,100819.58
2018-04-23T17:33:24.382Z,100814.24
2018-04-23T17:35:52.798Z,100818.09
2018-04-23T17:38:23.088Z,100813.21
2018-04-23T17:40:52.241Z,100815.81
2018-04-23T17:43:21.600Z,100819.70
2018-04-23T17:45:52.079Z,100826.66
2018-04-23T17:50:54.025Z,100819.00
2018-04-23T17:53:23.372Z,100826.06
2018-04-23T17:55:53.955Z,100833.70
2018-04-23T17:58:23.565Z,100844.30
2018-04-23T18:00:52.316Z,100842.58
2018-04-23T18:03:26.137Z,100854.16
2018-04-23T18:05:54.599Z,100854.17
2018-04-23T18:08:23.340Z,100865.21
2018-04-23T18:10:53.156Z,100865.19
2018-04-23T18:13:25.479Z,100872.19
2018-04-23T18:15:54.045Z,100873.41
2018-04-23T18:18:23.268Z,100876.64
2018-04-23T18:20:52.645Z,100879.88
2018-04-23T18:23:21.129Z,100883.23
2018-04-23T18:25:49.498Z,100885.49
2018-04-23T18:28:17.890Z,100887.06
2018-04-23T18:30:46.632Z,100894.52
2018-04-23T18:33:16.553Z,100899.55
2018-04-23T18:35:47.168Z,100905.41
2018-04-23T18:38:15.965Z,100901.16
2018-04-23T18:40:45.128Z,100898.41
2018-04-23T18:43:14.758Z,100906.82
2018-04-23T18:45:43.870Z,100915.27
2018-04-23T18:48:12.267Z,100916.05
2018-04-23T18:50:41.472Z,100912.36
2018-04-23T18:53:10.847Z,100925.34
2018-04-23T18:55:40.106Z,100923.84
2018-04-23T18:58:08.454Z,100931.75
2018-04-23T19:00:37.474Z,100935.73
2018-04-23T19:03:06.224Z,100938.22
2018-04-23T19:05:36.455Z,100937.61
2018-04-23T19:08:05.287Z,100931.50
2018-04-23T19:10:33.720Z,100934.23
2018-04-23T19:13:02.106Z,100931.44
2018-04-23T19:15:30.569Z,100930.38
2018-04-23T19:18:05.457Z,100932.86
2018-04-23T19:20:36.352Z,100938.55
2018-04-23T19:23:04.880Z,100937.89
2018-04-23T19:25:36.243Z,100940.20
2018-04-23T19:28:07.357Z,100943.52
2018-04-23T19:30:36.112Z,100935.63
2018-04-23T19:33:05.351Z,100940.14
2018-04-23T19:35:34.052Z,100942.63
2018-04-23T19:38:02.550Z,100942.87
2018-04-23T19:40:32.463Z,100949.31
2018-04-23T19:43:01.355Z,100958.98
2018-04-23T19:45:29.813Z,100955.70
2018-04-23T19:48:00.253Z,100960.39
2018-04-23T19:50:28.657Z,100946.63
2018-04-23T19:52:57.136Z,100951.38
2018-04-23T19:55:25.596Z,100951.45
2018-04-23T19:57:53.984Z,100951.59
2018-04-23T20:00:22.663Z,100957.28
2018-04-23T20:02:51.225Z,100960.36
2018-04-23T20:05:21.105Z,100956.73
2018-04-23T20:07:52.880Z,100962.03
2018-04-23T20:10:21.373Z,100952.58
2018-04-23T20:12:50.483Z,100948.60
2018-04-23T20:15:19.776Z,100959.11
2018-04-23T20:17:48.357Z,100951.97
2018-04-23T20:20:16.849Z,100943.72
2018-04-23T20:22:45.589Z,100957.50
2018-04-23T20:25:17.015Z,100957.28
2018-04-23T20:27:45.610Z,100950.91
2018-04-23T20:30:14.020Z,100945.48
2018-04-23T20:32:42.719Z,100949.48
2018-04-23T20:35:11.528Z,100950.89
2018-04-23T20:37:40.217Z,100952.39
2018-04-23T20:40:08.725Z,100951.73
2018-04-23T20:42:37.184Z,100947.97
2018-04-23T20:45:06.630Z,100954.12
2018-04-23T20:47:36.060Z,100946.32
2018-04-23T20:50:04.512Z,100953.49
2018-04-23T20:52:32.872Z,100954.58
2018-04-23T20:55:02.100Z,100950.84
2018-04-23T20:57:31.873Z,100953.11
2018-04-23T21:00:00.206Z,100951.01
2018-04-23T21:02:28.829Z,100952.41
2018-04-23T21:04:58.604Z,100945.28
2018-04-23T21:07:27.668Z,100951.33
2018-04-23T21:09:56.066Z,100953.21
2018-04-23T21:12:24.675Z,100954.61
2018-04-23T21:14:53.043Z,100949.61
2018-04-23T21:17:22.352Z,100955.76
2018-04-23T21:19:53.542Z,100955.09
2018-04-23T21:22:22.691Z,100954.73
2018-04-23T21:24:51.095Z,100953.11
2018-04-23T21:27:19.459Z,100957.86
2018-04-23T21:29:48.417Z,100955.72
2018-04-23T21:32:16.935Z,100958.08
2018-04-23T21:34:46.681Z,100964.34
2018-04-23T21:37:15.042Z,100961.19
2018-04-23T21:39:44.654Z,100967.14
2018-04-23T21:42:13.558Z,100967.58
2018-04-23T21:44:51.909Z,100965.58
2018-04-23T21:47:21.268Z,100966.46
2018-04-23T21:49:49.988Z,100970.95
2018-04-23T21:52:19.403Z,100967.62
2018-04-23T21:57:37.357Z,100958.48
2018-04-23T22:00:05.792Z,100968.47
2018-04-23T22:02:47.078Z,100964.06
2018-04-23T22:05:15.621Z,100963.65
2018-04-23T22:07:43.960Z,100957.43
2018-04-23T22:10:12.316Z,100958.64
2018-04-23T22:12:40.830Z,100965.25
2018-04-23T22:15:09.577Z,100959.87
2018-04-23T22:17:38.108Z,100962.23
2018-04-23T22:20:11.263Z,100967.80
2018-04-23T22:22:40.122Z,100963.98
2018-04-23T22:25:08.702Z,100969.58
2018-04-23T22:27:37.063Z,100964.99
2018-04-23T22:30:05.437Z,100968.84
2018-04-23T22:32:34.830Z,100966.92
2018-04-23T22:35:03.978Z,100970.02
2018-04-23T22:37:32.687Z,100972.16
2018-04-23T22:40:01.324Z,100977.81
2018-04-23T22:42:29.859Z,100969.88
2018-04-23T22:44:58.542Z,100972.01
2018-04-23T22:47:27.492Z,100966.95
2018-04-23T22:49:56.126Z,100974.94
2018-04-23T22:52:24.661Z,100964.76
2018-04-23T22:54:54.468Z,100971.65
2018-04-23T22:57:23.486Z,100972.83
2018-04-23T22:59:52.231Z,100968.98
2018-04-23T23:02:21.736Z,100975.38
2018-04-23T23:04:50.199Z,100976.05
2018-04-23T23:07:18.734Z,100971.34
2018-04-23T23:09:47.905Z,100970.28
2018-04-23T23:12:16.247Z,100962.79
2018-04-23T23:14:45.705Z,100962.87
2018-04-23T23:17:14.160Z,100963.28
2018-04-23T23:19:43.075Z,100965.91
2018-04-23T23:22:14.375Z,100956.64
2018-04-23T23:24:43.243Z,100956.55
2018-04-23T23:27:12.385Z,100956.97
2018-04-23T23:29:41.288Z,100953.33
2018-04-23T23:32:09.745Z,100960.09
2018-04-23T23:34:38.513Z,100958.77
2018-04-23T23:37:07.434Z,100950.45
2018-04-23T23:39:35.827Z,100954.72
2018-04-23T23:42:04.345Z,100953.55
2018-04-23T23:44:32.691Z,100957.90
2018-04-23T23:47:01.041Z,100950.80
2018-04-23T23:49:29.407Z,100958.95
2018-04-23T23:51:57.849Z,100962.55
2018-04-23T23:54:26.193Z,100963.14
2018-04-23T23:56:54.601Z,100959.52
2018-04-23T23:59:23.144Z,100960.05
